createdAt,value
2018-09-05T00:00:55.685Z,59.60
2018-09-05T00:03:24.714Z,59.90
2018-09-05T00:05:52.957Z,59.80
2018-09-05T00:08:21.952Z,59.80
2018-09-05T00:10:50.156Z,59.90
2018-09-05T00:13:18.423Z,59.90
2018-09-05T00:15:46.678Z,59.80
2018-09-05T00:18:15.636Z,60.40
2018-09-05T00:20:43.882Z,60.50
2018-09-05T00:23:12.123Z,59.90
2018-09-05T00:25:41.109Z,62.40
2018-09-05T00:28:10.131Z,60.10
2018-09-05T00:30:38.391Z,60.20
2018-09-05T00:33:07.399Z,60.20
2018-09-05T00:35:35.616Z,60.20
2018-09-05T00:38:03.864Z,59.80
2018-09-05T00:40:32.135Z,59.50
2018-09-05T00:43:00.342Z,59.50
2018-09-05T00:45:28.547Z,59.50
2018-09-05T00:47:57.584Z,60.60
2018-09-05T00:50:25.772Z,60.70
2018-09-05T00:52:54.010Z,59.90
2018-09-05T00:55:23.030Z,59.90
2018-09-05T00:57:51.295Z,59.80
2018-09-05T01:00:19.493Z,59.80
2018-09-05T01:02:47.733Z,60.00
2018-09-05T01:05:16.698Z,60.10
2018-09-05T01:07:44.951Z,60.10
2018-09-05T01:10:13.197Z,60.00
2018-09-05T01:12:41.471Z,59.80
2018-09-05T01:15:10.478Z,61.40
2018-09-05T01:17:38.676Z,61.40
2018-09-05T01:20:06.905Z,60.40
2018-09-05T01:22:35.883Z,61.40
2018-09-05T01:25:04.915Z,60.10
2018-09-05T01:27:33.115Z,60.10
2018-09-05T01:30:01.384Z,60.40
2018-09-05T01:32:29.588Z,60.10
2018-09-05T01:34:57.815Z,60.00
2018-09-05T01:37:26.021Z,60.10
2018-09-05T01:39:54.233Z,59.90
2018-09-05T01:42:23.245Z,60.90
2018-09-05T01:44:51.490Z,60.70
2018-09-05T01:47:19.707Z,60.20
2018-09-05T01:49:47.922Z,60.50
2018-09-05T01:52:16.139Z,60.40
2018-09-05T01:54:45.159Z,61.50
2018-09-05T01:57:13.385Z,61.40
2018-09-05T01:59:41.641Z,60.80
2018-09-05T02:02:09.863Z,60.60
2018-09-05T02:04:38.888Z,60.30
2018-09-05T02:07:07.130Z,60.40
2018-09-05T02:09:36.157Z,60.70
2018-09-05T02:12:04.405Z,60.70
2018-09-05T02:14:32.662Z,60.50
2018-09-05T02:17:00.908Z,60.90
2018-09-05T02:19:29.144Z,60.30
2018-09-05T02:21:57.396Z,60.80
2018-09-05T02:24:25.580Z,60.80
2018-09-05T02:26:54.572Z,60.70
2018-09-05T02:29:23.590Z,60.60
2018-09-05T02:31:52.620Z,60.50
2018-09-05T02:34:20.830Z,60.60
2018-09-05T02:36:49.060Z,60.50
2018-09-05T02:39:17.266Z,59.70
2018-09-05T02:41:45.549Z,60.30
2018-09-05T02:44:14.509Z,60.20
2018-09-05T02:46:42.740Z,60.30
2018-09-05T02:49:11.754Z,61.10
2018-09-05T02:51:39.977Z,61.10
2018-09-05T02:54:08.192Z,62.40
2018-09-05T02:56:37.192Z,61.00
2018-09-05T02:59:06.226Z,61.20
2018-09-05T03:01:34.463Z,61.20
2018-09-05T03:04:03.494Z,61.50
2018-09-05T03:06:31.700Z,61.50
2018-09-05T03:08:59.964Z,63.00
2018-09-05T03:11:28.181Z,61.40
2018-09-05T03:13:57.196Z,61.30
2018-09-05T03:16:25.455Z,61.40
2018-09-05T03:18:54.437Z,61.80
2018-09-05T03:21:23.457Z,61.40
2018-09-05T03:23:51.700Z,61.80
2018-09-05T03:26:19.965Z,61.60
2018-09-05T03:28:48.160Z,60.90
2018-09-05T03:31:17.151Z,61.20
2018-09-05T03:33:46.176Z,61.00
2018-09-05T03:36:15.168Z,62.00
2018-09-05T03:38:43.423Z,62.00
2018-09-05T03:41:11.659Z,62.00
2018-09-05T03:43:39.875Z,62.50
2018-09-05T03:46:08.899Z,62.70
2018-09-05T03:48:37.155Z,62.70
2018-09-05T03:51:06.123Z,62.80
2018-09-05T03:53:34.356Z,62.80
2018-09-05T03:56:02.597Z,63.00
2018-09-05T03:58:31.624Z,63.10
2018-09-05T04:00:59.877Z,63.10
2018-09-05T04:03:28.909Z,63.00
2018-09-05T04:05:57.157Z,62.90
2018-09-05T04:08:26.151Z,63.10
2018-09-05T04:10:55.181Z,64.10
2018-09-05T04:13:23.379Z,65.00
2018-09-05T04:15:51.596Z,62.70
2018-09-05T04:18:19.853Z,63.30
2018-09-05T04:20:48.069Z,63.60
2018-09-05T04:23:16.283Z,65.20
2018-09-05T04:25:44.535Z,64.50
2018-09-05T04:28:12.804Z,62.80
2018-09-05T04:30:41.015Z,62.60
2018-09-05T04:33:09.264Z,62.50
2018-09-05T04:35:37.507Z,62.20
2018-09-05T04:38:05.764Z,63.70
2018-09-05T04:40:34.003Z,65.90
2018-09-05T04:43:02.984Z,63.60
2018-09-05T04:45:31.233Z,63.60
2018-09-05T04:47:59.495Z,64.10
2018-09-05T04:50:28.503Z,64.60
2018-09-05T04:52:56.732Z,64.60
2018-09-05T04:55:24.981Z,64.70
2018-09-05T04:57:53.245Z,64.20
2018-09-05T05:00:21.445Z,67.00
2018-09-05T05:02:49.671Z,65.20
2018-09-05T05:05:18.717Z,65.40
2018-09-05T05:07:46.929Z,65.40
2018-09-05T05:10:15.173Z,68.00
2018-09-05T05:12:43.375Z,72.80
2018-09-05T05:15:11.579Z,64.70
2018-09-05T05:17:39.808Z,66.30
2018-09-05T05:20:08.070Z,66.90
2018-09-05T05:22:36.265Z,66.70
2018-09-05T05:25:04.518Z,65.80
2018-09-05T05:27:32.728Z,64.40
2018-09-05T05:30:00.945Z,64.90
2018-09-05T05:32:29.266Z,65.00
2018-09-05T05:34:57.476Z,65.20
2018-09-05T05:37:26.485Z,65.70
2018-09-05T05:39:54.700Z,64.80
2018-09-05T05:42:22.943Z,66.40
2018-09-05T05:44:51.164Z,65.00
2018-09-05T05:47:19.403Z,66.70
2018-09-05T05:49:47.612Z,64.60
2018-09-05T05:52:15.862Z,68.30
2018-09-05T05:54:44.123Z,67.10
2018-09-05T05:57:12.324Z,68.30
2018-09-05T05:59:40.591Z,66.70
2018-09-05T06:02:08.802Z,66.50
2018-09-05T06:04:37.024Z,66.50
2018-09-05T06:07:05.275Z,65.50
2018-09-05T06:09:33.501Z,65.40
2018-09-05T06:12:01.774Z,65.10
2018-09-05T06:14:29.968Z,65.30
2018-09-05T06:16:58.189Z,65.20
2018-09-05T06:19:27.203Z,66.80
2018-09-05T06:21:55.498Z,66.70
2018-09-05T06:24:23.748Z,66.20
2018-09-05T06:26:52.766Z,66.30
2018-09-05T06:29:21.014Z,66.40
2018-09-05T06:31:50.038Z,66.40
2018-09-05T06:34:18.785Z,66.40
2018-09-05T06:36:46.983Z,67.00
2018-09-05T06:39:15.200Z,67.50
2018-09-05T06:41:43.447Z,66.40
2018-09-05T06:44:11.701Z,68.10
2018-09-05T06:46:40.712Z,68.00
2018-09-05T06:49:08.984Z,67.90
2018-09-05T06:51:38.008Z,69.60
2018-09-05T06:54:06.258Z,69.60
2018-09-05T06:56:34.472Z,67.90
2018-09-05T06:59:02.733Z,67.80
2018-09-05T07:01:30.978Z,68.40
2018-09-05T07:04:00.053Z,70.40
2018-09-05T07:06:28.192Z,71.20
2018-09-05T07:08:56.456Z,68.70
2018-09-05T07:11:24.697Z,67.90
2018-09-05T07:13:53.683Z,69.80
2018-09-05T07:16:21.945Z,69.90
2018-09-05T07:18:50.144Z,68.10
2018-09-05T07:21:19.243Z,67.70
2018-09-05T07:23:47.381Z,67.70
2018-09-05T07:26:15.611Z,67.60
2018-09-05T07:28:43.867Z,67.80
2018-09-05T07:31:12.856Z,68.40
2018-09-05T07:33:41.875Z,68.10
2018-09-05T07:36:10.089Z,68.10
2018-09-05T07:38:38.356Z,72.60
2018-09-05T07:41:06.555Z,67.90
2018-09-05T07:43:34.870Z,68.20
2018-09-05T07:46:03.054Z,68.40
2018-09-05T07:48:31.282Z,68.30
2018-09-05T07:50:59.514Z,76.80
2018-09-05T07:53:27.771Z,69.90
2018-09-05T07:55:56.745Z,68.80
2018-09-05T07:58:25.788Z,70.80
2018-09-05T08:00:54.030Z,70.80
2018-09-05T08:03:23.062Z,68.60
2018-09-05T08:05:51.336Z,68.60
2018-09-05T08:08:19.574Z,69.10
2018-09-05T08:10:48.562Z,68.60
2018-09-05T08:13:17.535Z,68.50
2018-09-05T08:15:45.756Z,68.50
2018-09-05T08:18:14.099Z,68.90
2018-09-05T08:20:42.252Z,68.40
2018-09-05T08:23:10.467Z,70.00
2018-09-05T08:25:39.502Z,68.90
2018-09-05T08:28:07.715Z,68.90
2018-09-05T08:30:36.013Z,69.50
2018-09-05T08:33:04.272Z,70.40
2018-09-05T08:35:32.925Z,73.40
2018-09-05T08:38:00.889Z,76.30
2018-09-05T08:40:30.612Z,72.00
2018-09-05T08:42:58.882Z,71.90
2018-09-05T08:45:27.325Z,71.50
2018-09-05T08:47:55.348Z,70.50
2018-09-05T08:50:23.587Z,70.20
2018-09-05T08:52:51.879Z,69.80
2018-09-05T08:55:20.898Z,69.80
2018-09-05T08:57:49.136Z,69.90
2018-09-05T09:00:17.388Z,69.40
2018-09-05T09:02:46.360Z,70.00
2018-09-05T09:05:14.628Z,70.00
2018-09-05T09:07:42.880Z,70.40
2018-09-05T09:10:11.136Z,69.60
2018-09-05T09:12:39.352Z,71.30
2018-09-05T09:15:07.578Z,72.00
2018-09-05T09:17:36.603Z,70.50
2018-09-05T09:20:04.843Z,70.50
2018-09-05T09:22:33.814Z,69.90
2018-09-05T09:25:02.070Z,69.80
2018-09-05T09:27:30.336Z,69.70
2018-09-05T09:29:58.581Z,69.60
2018-09-05T09:32:27.328Z,69.50
2018-09-05T09:34:55.550Z,69.40
2018-09-05T09:37:23.816Z,69.30
2018-09-05T09:39:52.825Z,69.30
2018-09-05T09:42:21.038Z,69.30
2018-09-05T09:44:50.061Z,69.60
2018-09-05T09:47:18.274Z,70.40
2018-09-05T09:49:46.485Z,69.30
2018-09-05T09:52:14.754Z,69.20
2018-09-05T09:54:42.959Z,69.50
2018-09-05T09:57:11.196Z,68.50
2018-09-05T09:59:39.405Z,69.10
2018-09-05T10:05:23.111Z,65.80
2018-09-05T10:07:51.354Z,66.00
2018-09-05T10:10:20.511Z,68.10
2018-09-05T10:12:49.385Z,68.50
2018-09-05T10:15:17.616Z,68.50
2018-09-05T10:17:45.820Z,68.50
2018-09-05T10:20:14.040Z,68.00
2018-09-05T10:22:42.363Z,68.40
2018-09-05T10:25:10.570Z,68.30
2018-09-05T10:27:38.808Z,68.30
2018-09-05T10:30:07.797Z,67.00
2018-09-05T10:32:36.771Z,65.60
2018-09-05T10:35:05.016Z,65.60
2018-09-05T10:37:33.241Z,62.90
2018-09-05T10:40:02.245Z,67.90
2018-09-05T10:42:31.219Z,64.50
2018-09-05T10:44:59.433Z,64.60
2018-09-05T10:47:27.653Z,58.60
2018-09-05T10:49:55.917Z,64.90
2018-09-05T10:52:24.193Z,56.00
2018-09-05T10:54:52.455Z,62.50
2018-09-05T10:57:20.677Z,60.50
2018-09-05T10:59:48.949Z,56.10
2018-09-05T11:02:17.151Z,54.80
2018-09-05T11:04:46.140Z,52.80
2018-09-05T11:07:15.157Z,59.60
2018-09-05T11:09:43.403Z,59.70
2018-09-05T11:12:11.644Z,59.60
2018-09-05T11:14:39.863Z,61.00
2018-09-05T11:17:08.882Z,59.20
2018-09-05T11:19:37.101Z,59.10
2018-09-05T11:22:05.322Z,59.00
2018-09-05T11:24:34.354Z,57.30
2018-09-05T11:27:02.560Z,57.40
2018-09-05T11:29:30.835Z,55.20
2018-09-05T11:31:59.049Z,58.50
2018-09-05T11:34:27.292Z,60.70
2018-09-05T11:36:55.580Z,59.60
2018-09-05T11:39:23.804Z,49.00
2018-09-05T11:41:52.020Z,59.60
2018-09-05T11:44:20.226Z,53.40
2018-09-05T11:46:48.506Z,53.60
2018-09-05T11:49:16.720Z,51.40
2018-09-05T11:51:44.940Z,49.50
2018-09-05T11:54:13.914Z,55.00
2018-09-05T11:56:42.142Z,55.10
2018-09-05T11:59:10.412Z,58.60
2018-09-05T12:01:38.668Z,56.90
2018-09-05T12:04:07.640Z,52.30
2018-09-05T12:06:35.879Z,52.50
2018-09-05T12:09:04.148Z,57.10
2018-09-05T12:11:32.450Z,55.90
2018-09-05T12:14:00.673Z,54.20
2018-09-05T12:16:29.714Z,56.40
2018-09-05T12:18:57.919Z,55.60
2018-09-05T12:21:26.140Z,56.40
2018-09-05T12:23:54.401Z,53.20
2018-09-05T12:26:22.659Z,57.10
2018-09-05T12:28:50.920Z,55.30
2018-09-05T12:31:19.223Z,57.40
2018-09-05T12:33:48.287Z,57.00
2018-09-05T12:36:16.501Z,56.90
2018-09-05T12:38:45.503Z,56.50
2018-09-05T12:41:14.517Z,56.90
2018-09-05T12:43:42.720Z,56.90
2018-09-05T12:46:10.959Z,56.80
2018-09-05T12:48:39.170Z,54.70
2018-09-05T12:51:07.439Z,55.00
2018-09-05T12:53:35.693Z,45.70
2018-09-05T12:56:03.951Z,54.70
2018-09-05T12:58:32.184Z,55.10
2018-09-05T13:01:00.391Z,41.20
2018-09-05T13:03:29.433Z,42.60
2018-09-05T13:05:57.675Z,42.90
2018-09-05T13:08:26.701Z,51.20
2018-09-05T13:10:54.957Z,51.10
2018-09-05T13:13:23.220Z,51.90
2018-09-05T13:15:52.233Z,51.20
2018-09-05T13:18:20.453Z,51.20
2018-09-05T13:20:48.705Z,51.40
2018-09-05T13:23:16.933Z,51.50
2018-09-05T13:25:45.127Z,53.30
2018-09-05T13:28:13.357Z,54.00
2018-09-05T13:30:41.627Z,54.20
2018-09-05T13:33:09.894Z,54.20
2018-09-05T13:35:38.820Z,54.20
2018-09-05T13:38:07.051Z,54.20
2018-09-05T13:40:35.267Z,52.60
2018-09-05T13:43:03.511Z,54.20
2018-09-05T13:45:31.728Z,53.60
2018-09-05T13:47:59.947Z,53.60
2018-09-05T13:50:28.341Z,55.30
2018-09-05T13:52:56.535Z,49.20
2018-09-05T13:55:24.850Z,55.90
2018-09-05T13:57:53.100Z,39.30
2018-09-05T14:00:21.304Z,51.10
2018-09-05T14:02:50.315Z,43.50
2018-09-05T14:05:18.545Z,43.20
2018-09-05T14:07:46.795Z,51.50
2018-09-05T14:10:15.018Z,50.30
2018-09-05T14:12:43.280Z,49.30
2018-09-05T14:15:11.480Z,51.80
2018-09-05T14:17:40.463Z,52.20
2018-09-05T14:20:09.503Z,52.50
2018-09-05T14:22:37.749Z,52.50
2018-09-05T14:25:06.775Z,53.20
2018-09-05T14:27:35.034Z,53.20
2018-09-05T14:30:03.240Z,54.00
2018-09-05T14:32:31.494Z,53.90
2018-09-05T14:34:59.722Z,53.50
2018-09-05T14:37:27.981Z,53.40
2018-09-05T14:39:56.267Z,52.10
2018-09-05T14:42:24.470Z,54.60
2018-09-05T14:44:53.500Z,53.90
2018-09-05T14:47:21.698Z,53.50
2018-09-05T14:49:49.946Z,52.50
2018-09-05T14:52:18.195Z,54.10
2018-09-05T14:54:46.416Z,49.40
2018-09-05T14:57:14.678Z,48.70
2018-09-05T14:59:42.924Z,47.80
2018-09-05T15:02:11.134Z,35.60
2018-09-05T15:04:39.353Z,47.90
2018-09-05T15:07:07.570Z,43.20
2018-09-05T15:09:35.798Z,42.00
2018-09-05T15:12:04.029Z,45.70
2018-09-05T15:14:32.266Z,37.20
2018-09-05T15:17:00.527Z,42.60
2018-09-05T15:19:28.744Z,46.10
2018-09-05T15:21:56.957Z,47.60
2018-09-05T15:24:25.272Z,34.60
2018-09-05T15:26:53.455Z,47.40
2018-09-05T15:29:22.494Z,43.60
2018-09-05T15:31:50.734Z,43.70
2018-09-05T15:34:19.713Z,42.10
2018-09-05T15:36:48.714Z,42.00
2018-09-05T15:39:17.789Z,40.80
2018-09-05T15:41:45.948Z,40.20
2018-09-05T15:44:14.217Z,44.40
2018-09-05T15:46:42.493Z,45.90
2018-09-05T15:49:10.700Z,46.20
2018-09-05T15:51:38.943Z,41.80
2018-09-05T15:54:07.211Z,42.00
2018-09-05T15:56:35.455Z,41.10
2018-09-05T15:59:04.487Z,47.40
2018-09-05T16:01:32.697Z,47.40
2018-09-05T16:04:00.931Z,45.80
2018-09-05T16:06:29.201Z,39.00
2018-09-05T16:08:57.460Z,46.80
2018-09-05T16:11:26.476Z,46.60
2018-09-05T16:13:54.703Z,46.60
2018-09-05T16:16:22.923Z,47.70
2018-09-05T16:18:51.153Z,46.10
2018-09-05T16:21:19.366Z,44.80
2018-09-05T16:23:47.607Z,47.70
2018-09-05T16:26:15.864Z,46.90
2018-09-05T16:28:44.119Z,46.90
2018-09-05T16:31:12.367Z,48.20
2018-09-05T16:33:41.392Z,47.30
2018-09-05T16:36:09.617Z,47.30
2018-09-05T16:38:37.845Z,43.50
2018-09-05T16:41:06.051Z,46.90
2018-09-05T16:43:34.325Z,45.40
2018-09-05T16:46:02.583Z,42.40
2018-09-05T16:48:30.884Z,45.30
2018-09-05T16:50:59.878Z,44.90
2018-09-05T16:53:28.111Z,44.80
2018-09-05T16:55:56.312Z,47.20
2018-09-05T16:58:24.587Z,48.00
2018-09-05T17:00:52.866Z,44.20
2018-09-05T17:03:21.076Z,44.20
2018-09-05T17:05:49.290Z,45.20
2018-09-05T17:08:17.559Z,46.50
2018-09-05T17:10:46.521Z,47.60
2018-09-05T17:13:14.824Z,47.60
2018-09-05T17:15:43.032Z,47.50
2018-09-05T17:18:11.261Z,47.70
2018-09-05T17:20:40.242Z,47.90
2018-09-05T17:23:09.218Z,48.30
2018-09-05T17:25:37.483Z,47.80
2018-09-05T17:28:05.747Z,48.20
2018-09-05T17:30:34.704Z,47.30
2018-09-05T17:33:02.931Z,47.20
2018-09-05T17:35:31.729Z,48.20
2018-09-05T17:37:59.942Z,48.70
2018-09-05T17:40:28.948Z,48.50
2018-09-05T17:42:57.152Z,48.50
2018-09-05T17:45:25.437Z,48.50
2018-09-05T17:47:53.692Z,49.40
2018-09-05T17:50:21.896Z,49.10
2018-09-05T17:52:50.147Z,49.50
2018-09-05T17:55:18.366Z,49.80
2018-09-05T17:57:46.622Z,49.70
2018-09-05T18:00:14.850Z,49.50
2018-09-05T18:02:43.877Z,49.60
2018-09-05T18:05:12.097Z,49.60
2018-09-05T18:07:40.325Z,49.70
2018-09-05T18:10:08.552Z,49.90
2018-09-05T18:12:36.807Z,49.60
2018-09-05T18:15:05.066Z,49.60
2018-09-05T18:17:33.277Z,49.70
2018-09-05T18:20:01.540Z,49.70
2018-09-05T18:22:29.834Z,49.60
2018-09-05T18:24:58.109Z,49.70
2018-09-05T18:27:26.300Z,49.60
2018-09-05T18:29:55.430Z,49.70
2018-09-05T18:32:23.692Z,49.70
2018-09-05T18:34:52.686Z,49.70
2018-09-05T18:37:21.662Z,49.90
2018-09-05T18:39:50.664Z,49.70
2018-09-05T18:42:19.643Z,50.00
2018-09-05T18:44:48.681Z,49.80
2018-09-05T18:47:16.911Z,49.80
2018-09-05T18:49:45.154Z,49.60
2018-09-05T18:52:13.373Z,49.70
2018-09-05T18:54:42.470Z,49.70
2018-09-05T18:57:10.687Z,49.70
2018-09-05T18:59:38.948Z,49.90
2018-09-05T19:02:07.206Z,49.70
2018-09-05T19:04:36.259Z,49.90
2018-09-05T19:07:04.455Z,49.90
2018-09-05T19:09:32.762Z,49.90
2018-09-05T19:12:01.766Z,49.90
2018-09-05T19:14:30.071Z,49.90
2018-09-05T19:16:58.313Z,50.00
2018-09-05T19:19:27.359Z,49.90
2018-09-05T19:21:55.616Z,49.90
2018-09-05T19:24:23.879Z,50.00
2018-09-05T19:26:52.528Z,50.10
2018-09-05T19:29:20.800Z,50.00
2018-09-05T19:31:49.935Z,50.10
2018-09-05T19:34:18.174Z,50.40
2018-09-05T19:36:46.432Z,50.30
2018-09-05T19:39:14.729Z,50.70
2018-09-05T19:41:42.990Z,50.50
2018-09-05T19:44:11.290Z,50.30
2018-09-05T19:46:40.599Z,51.20
2018-09-05T19:49:08.886Z,50.40
2018-09-05T19:51:37.228Z,50.50
2018-09-05T19:54:05.513Z,50.50
2018-09-05T19:56:33.750Z,50.80
2018-09-05T19:59:02.088Z,51.20
2018-09-05T20:01:30.326Z,51.70
2018-09-05T20:03:59.512Z,51.20
2018-09-05T20:06:27.750Z,52.20
2018-09-05T20:08:56.787Z,51.40
2018-09-05T20:11:24.988Z,51.40
2018-09-05T20:13:54.050Z,52.30
2018-09-05T20:16:22.333Z,51.40
2018-09-05T20:18:50.535Z,51.30
2018-09-05T20:21:18.803Z,51.50
2018-09-05T20:23:47.049Z,52.00
2018-09-05T20:26:15.312Z,51.20
2018-09-05T20:28:43.528Z,51.30
2018-09-05T20:31:11.748Z,51.30
2018-09-05T20:33:40.726Z,51.30
2018-09-05T20:36:09.720Z,51.30
2018-09-05T20:38:38.715Z,51.90
2018-09-05T20:41:07.745Z,51.60
2018-09-05T20:43:35.979Z,51.60
2018-09-05T20:46:04.212Z,51.90
2018-09-05T20:48:32.417Z,51.50
2018-09-05T20:51:00.685Z,51.60
2018-09-05T20:53:28.942Z,51.40
2018-09-05T20:55:57.201Z,51.40
2018-09-05T20:58:25.402Z,51.50
2018-09-05T21:00:53.669Z,51.40
2018-09-05T21:03:21.874Z,51.50
2018-09-05T21:05:50.142Z,51.90
2018-09-05T21:08:18.337Z,51.90
2018-09-05T21:10:46.577Z,51.60
2018-09-05T21:13:14.845Z,51.50
2018-09-05T21:15:43.056Z,51.80
2018-09-05T21:18:11.431Z,52.20
2018-09-05T21:20:39.555Z,52.60
2018-09-05T21:23:07.800Z,53.10
2018-09-05T21:25:36.058Z,52.60
2018-09-05T21:28:04.313Z,52.50
2018-09-05T21:30:32.545Z,52.90
2018-09-05T21:33:01.563Z,52.90
2018-09-05T21:35:30.138Z,52.80
2018-09-05T21:37:59.101Z,52.90
2018-09-05T21:40:27.367Z,52.90
2018-09-05T21:42:55.586Z,53.50
2018-09-05T21:45:23.813Z,53.10
2018-09-05T21:47:52.069Z,52.70
2018-09-05T21:50:20.321Z,52.80
2018-09-05T21:52:48.549Z,52.50
2018-09-05T21:55:16.789Z,52.70
2018-09-05T21:57:45.045Z,52.90
2018-09-05T22:00:14.032Z,52.90
2018-09-05T22:02:43.058Z,53.10
2018-09-05T22:05:11.321Z,53.10
2018-09-05T22:07:40.277Z,53.00
2018-09-05T22:10:09.285Z,53.60
2018-09-05T22:12:38.294Z,52.80
2018-09-05T22:15:06.565Z,52.80
2018-09-05T22:17:35.545Z,52.90
2018-09-05T22:20:04.569Z,52.90
2018-09-05T22:22:32.770Z,52.90
2018-09-05T22:25:01.000Z,53.10
2018-09-05T22:27:29.259Z,52.80
2018-09-05T22:29:57.516Z,52.90
2018-09-05T22:32:25.717Z,53.30
2018-09-05T22:34:54.764Z,53.10
2018-09-05T22:37:23.000Z,53.20
2018-09-05T22:39:51.977Z,53.20
2018-09-05T22:42:20.230Z,53.20
2018-09-05T22:45:00.315Z,53.20
2018-09-05T22:47:34.094Z,53.10
2018-09-05T22:50:02.349Z,53.10
2018-09-05T22:52:36.274Z,53.10
2018-09-05T22:58:19.227Z,53.30
2018-09-05T23:00:47.430Z,54.60
2018-09-05T23:03:16.414Z,54.20
2018-09-05T23:05:45.437Z,54.10
2018-09-05T23:08:13.642Z,53.70
2018-09-05T23:10:53.686Z,54.00
2018-09-05T23:13:21.935Z,55.70
2018-09-05T23:16:12.539Z,54.30
2018-09-05T23:18:51.669Z,54.20
2018-09-05T23:21:20.683Z,54.20
2018-09-05T23:23:48.923Z,54.20
2018-09-05T23:26:17.183Z,54.30
2018-09-05T23:28:45.381Z,54.00
2018-09-05T23:31:14.372Z,53.70
2018-09-05T23:33:43.341Z,54.00
2018-09-05T23:36:11.603Z,54.00
2018-09-05T23:38:39.804Z,54.20
2018-09-05T23:41:08.065Z,57.60
2018-09-05T23:43:36.266Z,59.40
2018-09-05T23:46:05.248Z,54.20
2018-09-05T23:48:33.498Z,54.20
2018-09-05T23:51:01.749Z,54.20
2018-09-05T23:53:29.965Z,54.30
2018-09-05T23:55:58.169Z,54.20
2018-09-05T23:58:27.198Z,54.10
